Terminal Aerodrome Forecast
Issued by NWS Shreveport, LA

Current Version | Previous Version | Text Only | Print | Product List | Glossary On
Versions: 1 2 3 4 5 6 7 8 9 10 11 12 13 14 15 16 17 18 19 20 21 22 23 24 25
000
FTUS44 KSHV 232342
TAFMLU
TAF
KMLU 232342Z 2400/2424 14008KT P6SM FEW030 BKN045 OVC080
     FM240200 14004KT 6SM BR OVC100
     FM240900 18003KT 4SM BR OVC007
     FM241500 17008KT 4SM -RA OVC015
     FM241800 19012G20KT P6SM OVC025
     FM242100 20018G26KT P6SM OVC050=

USA.gov is the U.S. government's official web portal to all federal, state and local government web resources and services.